Time;durP1;ratioP1;P1;durP2;ratioP2;P2;SDS_P1;SDS_P2;PMS_P1;PMS_P2;Temp;Humidity;BMP_temperature;BMP_pressure;BME280_temperature;BME280_humidity;BME280_pressure;Samples;Min_cycle;Max_cycle;Signal;HPM_P1;HPM_P2
2023/09/20 00:00:11;;;;;;;2.00;1.10;;;;;;;;;;5095546;28;20255;-84
2023/09/20 00:02:39;;;;;;;1.10;1.00;;;;;;;;;;5095285;28;20705;-84
2023/09/20 00:05:07;;;;;;;1.95;1.30;;;;;;;;;;5093990;28;20278;-84
2023/09/20 00:07:35;;;;;;;1.10;1.00;;;;;;;;;;5094345;28;20203;-84
2023/09/20 00:10:04;;;;;;;1.17;1.08;;;;;;;;;;5094148;28;20711;-85
2023/09/20 00:12:31;;;;;;;2.70;0.70;;;;;;;;;;5094439;28;20887;-84
2023/09/20 00:14:59;;;;;;;1.10;1.00;;;;;;;;;;5094082;28;20602;-84
2023/09/20 00:17:26;;;;;;;1.10;1.10;;;;;;;;;;5094084;28;20754;-84
2023/09/20 00:19:53;;;;;;;1.10;1.00;;;;;;;;;;5093916;28;20233;-83
2023/09/20 00:22:21;;;;;;;1.73;1.08;;;;;;;;;;5094191;28;20221;-84
2023/09/20 00:24:49;;;;;;;1.02;0.90;;;;;;;;;;5093948;28;20235;-84
2023/09/20 00:27:16;;;;;;;1.85;0.75;;;;;;;;;;5094037;28;20220;-84
2023/09/20 00:29:43;;;;;;;3.08;1.38;;;;;;;;;;5093584;28;20676;-84
2023/09/20 00:32:10;;;;;;;2.33;1.30;;;;;;;;;;5093790;28;20228;-84
2023/09/20 00:34:37;;;;;;;1.00;0.90;;;;;;;;;;5093480;28;20629;-84
2023/09/20 00:37:04;;;;;;;1.17;1.13;;;;;;;;;;5094062;28;20197;-84
2023/09/20 00:39:32;;;;;;;1.63;1.15;;;;;;;;;;5093339;28;20227;-84
2023/09/20 00:42:00;;;;;;;1.13;1.00;;;;;;;;;;5093857;28;20227;-83
2023/09/20 00:44:27;;;;;;;1.73;1.02;;;;;;;;;;5093302;28;20235;-84
2023/09/20 00:46:55;;;;;;;3.25;1.20;;;;;;;;;;5093737;28;20217;-84
2023/09/20 00:49:22;;;;;;;0.80;0.80;;;;;;;;;;5093395;28;20640;-84
2023/09/20 00:51:49;;;;;;;1.33;1.17;;;;;;;;;;5093942;28;20224;-84
2023/09/20 00:54:17;;;;;;;1.20;1.10;;;;;;;;;;5093347;28;20557;-84
2023/09/20 00:56:44;;;;;;;0.77;0.77;;;;;;;;;;5093633;28;20201;-84
2023/09/20 00:59:13;;;;;;;0.75;0.75;;;;;;;;;;5092889;28;20200;-84
2023/09/20 01:01:41;;;;;;;0.98;0.98;;;;;;;;;;5093836;28;20229;-83
2023/09/20 01:04:08;;;;;;;0.90;0.90;;;;;;;;;;5087969;28;20196;-84
2023/09/20 01:06:36;;;;;;;1.63;1.20;;;;;;;;;;5061581;28;20221;-84
2023/09/20 01:09:04;;;;;;;2.38;0.90;;;;;;;;;;5084382;28;20227;-84
2023/09/20 01:11:32;;;;;;;2.15;1.15;;;;;;;;;;5093398;28;20764;-85
2023/09/20 01:13:59;;;;;;;1.00;1.00;;;;;;;;;;5093675;28;20211;-84
2023/09/20 01:16:28;;;;;;;0.68;0.68;;;;;;;;;;5093053;28;20221;-84
2023/09/20 01:18:55;;;;;;;1.05;1.05;;;;;;;;;;5093501;28;20551;-84
2023/09/20 01:21:22;;;;;;;0.95;0.95;;;;;;;;;;5092600;28;20235;-84
2023/09/20 01:23:51;;;;;;;1.00;1.00;;;;;;;;;;5094882;28;20654;-84
2023/09/20 01:26:19;;;;;;;1.38;1.27;;;;;;;;;;5094817;28;20316;-84
2023/09/20 01:28:47;;;;;;;1.15;1.00;;;;;;;;;;5100944;28;20218;-84
2023/09/20 01:31:14;;;;;;;1.10;1.08;;;;;;;;;;5093766;28;20271;-84
2023/09/20 01:33:41;;;;;;;1.35;1.05;;;;;;;;;;5093314;28;20205;-83
2023/09/20 01:36:08;;;;;;;1.85;1.08;;;;;;;;;;5092790;28;20221;-84
2023/09/20 01:38:36;;;;;;;1.58;1.20;;;;;;;;;;5092949;28;20584;-83
2023/09/20 01:41:06;;;;;;;1.23;1.13;;;;;;;;;;5092219;28;20735;-84
2023/09/20 01:43:33;;;;;;;1.10;1.10;;;;;;;;;;5092746;28;20212;-84
2023/09/20 01:46:02;;;;;;;0.98;0.98;;;;;;;;;;5091415;28;20228;-84
2023/09/20 01:48:30;;;;;;;1.35;1.25;;;;;;;;;;5092499;28;20204;-84
2023/09/20 01:50:57;;;;;;;0.82;0.80;;;;;;;;;;5092366;28;20235;-83
2023/09/20 01:53:24;;;;;;;3.00;1.27;;;;;;;;;;5092835;28;20627;-84
2023/09/20 01:55:51;;;;;;;1.50;1.10;;;;;;;;;;5092396;28;20228;-83
2023/09/20 01:58:20;;;;;;;1.77;0.98;;;;;;;;;;5092506;28;20213;-84
2023/09/20 02:00:49;;;;;;;1.93;1.10;;;;;;;;;;5092073;28;20228;-84
2023/09/20 02:03:17;;;;;;;1.45;1.35;;;;;;;;;;5092156;28;20736;-84
2023/09/20 02:05:46;;;;;;;2.13;0.88;;;;;;;;;;5091997;28;20647;-83
2023/09/20 02:08:13;;;;;;;1.48;1.20;;;;;;;;;;5092189;28;20213;-84
2023/09/20 02:10:40;;;;;;;0.95;0.95;;;;;;;;;;5075657;28;20613;-83
2023/09/20 02:13:07;;;;;;;1.47;1.07;;;;;;;;;;5092333;28;20228;-83
2023/09/20 02:15:36;;;;;;;1.65;1.33;;;;;;;;;;5091649;28;20256;-84
2023/09/20 02:18:05;;;;;;;2.13;1.13;;;;;;;;;;5091990;28;20607;-84
2023/09/20 02:20:34;;;;;;;0.90;0.90;;;;;;;;;;5091707;28;20239;-84
2023/09/20 02:23:02;;;;;;;1.50;1.27;;;;;;;;;;5092207;28;20270;-84
2023/09/20 02:25:29;;;;;;;1.10;1.10;;;;;;;;;;5091564;28;20232;-84
2023/09/20 02:27:58;;;;;;;1.20;1.10;;;;;;;;;;5091659;28;20623;-84
2023/09/20 02:30:28;;;;;;;1.02;0.98;;;;;;;;;;5091635;28;20228;-84
2023/09/20 02:32:58;;;;;;;1.03;1.00;;;;;;;;;;5092250;28;20221;-83
2023/09/20 02:35:26;;;;;;;1.47;1.23;;;;;;;;;;5091455;28;20652;-84
2023/09/20 02:37:54;;;;;;;1.23;1.20;;;;;;;;;;5091909;28;20670;-84
2023/09/20 02:40:23;;;;;;;0.90;0.90;;;;;;;;;;5091431;28;20650;-84
2023/09/20 02:42:52;;;;;;;0.80;0.80;;;;;;;;;;5091931;28;20309;-84
2023/09/20 02:45:20;;;;;;;1.10;1.00;;;;;;;;;;5091593;28;20315;-83
2023/09/20 02:47:47;;;;;;;1.25;1.20;;;;;;;;;;5092039;28;20709;-83
2023/09/20 02:50:18;;;;;;;2.00;1.23;;;;;;;;;;5091540;28;20243;-84
2023/09/20 02:52:46;;;;;;;1.17;1.10;;;;;;;;;;5076678;28;20248;-83
2023/09/20 02:55:13;;;;;;;1.27;1.20;;;;;;;;;;5091221;28;20705;-83
2023/09/20 02:57:41;;;;;;;2.03;1.40;;;;;;;;;;5093118;28;20196;-83
2023/09/20 03:00:15;;;;;;;1.33;1.10;;;;;;;;;;5095817;28;20252;-84
2023/09/20 03:02:45;;;;;;;1.67;1.13;;;;;;;;;;5079895;28;20259;-83
2023/09/20 03:05:13;;;;;;;2.37;1.20;;;;;;;;;;5095490;28;20234;-83
2023/09/20 03:07:42;;;;;;;0.93;0.93;;;;;;;;;;5095548;28;20249;-84
2023/09/20 03:10:12;;;;;;;2.03;1.20;;;;;;;;;;5095311;28;20349;-84
2023/09/20 03:12:40;;;;;;;1.47;1.20;;;;;;;;;;5095683;28;20217;-84
2023/09/20 03:15:10;;;;;;;1.10;0.97;;;;;;;;;;5095168;28;20224;-84
2023/09/20 03:17:37;;;;;;;3.70;1.30;;;;;;;;;;5095583;28;20660;-84
2023/09/20 03:20:09;;;;;;;0.90;0.90;;;;;;;;;;5095257;28;20245;-84
2023/09/20 03:22:37;;;;;;;1.40;1.00;;;;;;;;;;5095426;28;20593;-84
2023/09/20 03:25:07;;;;;;;1.10;1.10;;;;;;;;;;5095097;28;20277;-83
2023/09/20 03:27:35;;;;;;;1.63;1.30;;;;;;;;;;5095091;28;20304;-84
2023/09/20 03:30:03;;;;;;;1.27;1.20;;;;;;;;;;5095102;28;20248;-83
2023/09/20 03:32:30;;;;;;;1.20;1.10;;;;;;;;;;5095432;28;20228;-83
2023/09/20 03:34:59;;;;;;;1.27;1.17;;;;;;;;;;5094999;28;20243;-84
2023/09/20 03:37:27;;;;;;;1.60;1.30;;;;;;;;;;5094938;28;20236;-83
2023/09/20 03:39:54;;;;;;;1.50;1.20;;;;;;;;;;5094662;28;20726;-83
2023/09/20 03:42:24;;;;;;;1.40;1.30;;;;;;;;;;5094725;28;20232;-83
2023/09/20 03:44:51;;;;;;;1.20;1.20;;;;;;;;;;5094481;28;20727;-84
2023/09/20 03:47:18;;;;;;;1.30;1.30;;;;;;;;;;5095011;28;20223;-83
2023/09/20 03:49:45;;;;;;;1.10;1.10;;;;;;;;;;5082479;28;20225;-84
2023/09/20 03:52:12;;;;;;;1.47;1.30;;;;;;;;;;5094909;28;20228;-83
2023/09/20 03:54:39;;;;;;;1.63;1.40;;;;;;;;;;5094185;28;20243;-83
2023/09/20 03:57:07;;;;;;;1.50;1.40;;;;;;;;;;5094770;28;20201;-84
2023/09/20 03:59:36;;;;;;;1.00;1.00;;;;;;;;;;5093801;28;20697;-84
2023/09/20 04:02:03;;;;;;;1.60;1.17;;;;;;;;;;5095036;28;20621;-83
2023/09/20 04:04:31;;;;;;;1.13;1.10;;;;;;;;;;5094193;28;20248;-84
2023/09/20 04:06:59;;;;;;;1.30;1.20;;;;;;;;;;5094691;28;20220;-84
2023/09/20 04:09:26;;;;;;;1.43;1.33;;;;;;;;;;5093285;28;20232;-83
2023/09/20 04:11:53;;;;;;;2.83;1.30;;;;;;;;;;5094678;28;20282;-84
2023/09/20 04:14:20;;;;;;;2.20;1.23;;;;;;;;;;5093992;28;20229;-84
2023/09/20 04:16:49;;;;;;;1.23;1.13;;;;;;;;;;5094507;28;20677;-83
2023/09/20 04:19:16;;;;;;;1.33;1.20;;;;;;;;;;5093788;28;20682;-83
2023/09/20 04:21:43;;;;;;;2.17;1.10;;;;;;;;;;5094188;28;20217;-84
2023/09/20 04:24:10;;;;;;;1.67;1.27;;;;;;;;;;5094601;28;20229;-84
2023/09/20 04:26:37;;;;;;;1.60;1.30;;;;;;;;;;5096113;28;20209;-84
2023/09/20 04:29:04;;;;;;;1.47;1.37;;;;;;;;;;5097010;28;20204;-85
2023/09/20 04:31:33;;;;;;;1.40;1.30;;;;;;;;;;5102492;28;20231;-84
2023/09/20 04:34:01;;;;;;;2.20;1.40;;;;;;;;;;5095630;28;20258;-84
2023/09/20 04:36:28;;;;;;;1.57;1.20;;;;;;;;;;5094904;28;20624;-84
2023/09/20 04:38:56;;;;;;;1.50;1.40;;;;;;;;;;5094977;28;20674;-84
2023/09/20 04:41:23;;;;;;;1.37;1.27;;;;;;;;;;5094453;28;20310;-83
2023/09/20 04:43:50;;;;;;;1.67;1.43;;;;;;;;;;5111812;28;20225;-83
2023/09/20 04:46:17;;;;;;;1.60;1.30;;;;;;;;;;5115930;28;20236;-84
2023/09/20 04:48:44;;;;;;;0.93;0.93;;;;;;;;;;5116243;28;20228;-84
2023/09/20 04:51:13;;;;;;;1.70;1.60;;;;;;;;;;5116106;28;20264;-84
2023/09/20 04:53:40;;;;;;;3.30;1.40;;;;;;;;;;5114686;28;20208;-83
2023/09/20 04:56:08;;;;;;;1.50;1.03;;;;;;;;;;5113011;28;20299;-83
2023/09/20 04:58:35;;;;;;;1.77;1.30;;;;;;;;;;5116558;28;20276;-84
2023/09/20 05:01:02;;;;;;;2.00;1.10;;;;;;;;;;5102890;28;20232;-83
2023/09/20 05:03:30;;;;;;;1.57;1.40;;;;;;;;;;5096399;28;20205;-83
2023/09/20 05:05:57;;;;;;;1.43;1.33;;;;;;;;;;5095035;28;20638;-83
2023/09/20 05:08:25;;;;;;;1.33;1.23;;;;;;;;;;5095709;28;20221;-83
2023/09/20 05:10:52;;;;;;;1.30;1.20;;;;;;;;;;5095991;28;20235;-86
2023/09/20 05:13:19;;;;;;;1.43;1.33;;;;;;;;;;5096841;28;20233;-86
2023/09/20 05:15:46;;;;;;;1.50;1.40;;;;;;;;;;5095482;28;20243;-85
2023/09/20 05:18:14;;;;;;;1.70;1.60;;;;;;;;;;5096247;28;20227;-85
2023/09/20 05:20:41;;;;;;;1.97;1.27;;;;;;;;;;5096239;28;20265;-85
2023/09/20 05:23:08;;;;;;;1.50;1.40;;;;;;;;;;5095985;28;20736;-85
2023/09/20 05:25:37;;;;;;;2.03;1.20;;;;;;;;;;5097455;28;20240;-85
2023/09/20 05:28:04;;;;;;;1.40;1.30;;;;;;;;;;5096304;28;20235;-85
2023/09/20 05:30:32;;;;;;;1.60;1.40;;;;;;;;;;5094241;28;20232;-85
2023/09/20 05:32:59;;;;;;;3.27;1.50;;;;;;;;;;5095334;28;20232;-84
2023/09/20 05:35:26;;;;;;;1.30;1.20;;;;;;;;;;5095455;28;20701;-85
2023/09/20 05:37:53;;;;;;;1.40;1.30;;;;;;;;;;5095090;28;20201;-85
2023/09/20 05:40:21;;;;;;;1.30;1.20;;;;;;;;;;5094145;28;20232;-85
2023/09/20 05:42:50;;;;;;;2.57;1.17;;;;;;;;;;5094490;28;20305;-85
2023/09/20 05:45:19;;;;;;;1.70;1.60;;;;;;;;;;5093892;28;20236;-86
2023/09/20 05:47:49;;;;;;;1.60;1.50;;;;;;;;;;5094533;28;20232;-85
2023/09/20 05:50:16;;;;;;;1.70;1.43;;;;;;;;;;5094305;28;20256;-86
2023/09/20 05:52:45;;;;;;;1.40;1.30;;;;;;;;;;5094509;28;20275;-85
2023/09/20 05:55:13;;;;;;;1.53;1.40;;;;;;;;;;5094820;28;20235;-86
2023/09/20 05:57:41;;;;;;;3.57;1.50;;;;;;;;;;5094456;28;20232;-85
2023/09/20 06:00:16;;;;;;;1.10;1.10;;;;;;;;;;5093352;28;20732;-85
2023/09/20 06:02:43;;;;;;;1.63;1.40;;;;;;;;;;5094195;28;20224;-84
2023/09/20 06:05:11;;;;;;;2.10;1.40;;;;;;;;;;5093559;28;20229;-85
2023/09/20 06:07:40;;;;;;;1.47;1.37;;;;;;;;;;5093902;28;20229;-85
2023/09/20 06:10:07;;;;;;;2.00;1.30;;;;;;;;;;5093150;28;20232;-84
2023/09/20 06:12:34;;;;;;;3.63;1.57;;;;;;;;;;5093267;28;20309;-84
2023/09/20 06:15:01;;;;;;;1.20;1.20;;;;;;;;;;5093164;28;20224;-84
2023/09/20 06:17:31;;;;;;;2.87;1.40;;;;;;;;;;5093495;28;20201;-84
2023/09/20 06:19:59;;;;;;;1.40;1.30;;;;;;;;;;5092933;28;20250;-84
2023/09/20 06:22:29;;;;;;;1.30;1.20;;;;;;;;;;5093007;28;20224;-84
2023/09/20 06:24:58;;;;;;;1.27;1.27;;;;;;;;;;5092691;28;20239;-85
2023/09/20 06:27:25;;;;;;;1.27;1.20;;;;;;;;;;5093677;28;20281;-84
2023/09/20 06:29:52;;;;;;;2.83;1.33;;;;;;;;;;5092910;28;20228;-85
2023/09/20 06:32:20;;;;;;;1.40;1.30;;;;;;;;;;5093088;28;20224;-85
2023/09/20 06:34:48;;;;;;;1.20;1.20;;;;;;;;;;5093273;28;20236;-85
2023/09/20 06:37:15;;;;;;;1.40;1.30;;;;;;;;;;5093258;28;20212;-85
2023/09/20 06:39:44;;;;;;;1.17;1.17;;;;;;;;;;5092190;28;20228;-85
2023/09/20 06:42:11;;;;;;;1.00;1.00;;;;;;;;;;5092670;28;20239;-85
2023/09/20 06:44:39;;;;;;;1.33;1.23;;;;;;;;;;5092437;28;20228;-85
2023/09/20 06:47:06;;;;;;;1.40;1.30;;;;;;;;;;5092546;28;20201;-85
2023/09/20 06:49:33;;;;;;;1.00;1.00;;;;;;;;;;5091816;28;20236;-85
2023/09/20 06:52:03;;;;;;;1.53;1.43;;;;;;;;;;5092648;28;20710;-84
2023/09/20 06:54:30;;;;;;;1.60;1.50;;;;;;;;;;5092032;28;20228;-85
2023/09/20 06:57:02;;;;;;;4.30;1.30;;;;;;;;;;5092725;28;20213;-85
2023/09/20 06:59:29;;;;;;;1.87;1.50;;;;;;;;;;5091833;28;20660;-85
2023/09/20 07:01:56;;;;;;;2.03;1.80;;;;;;;;;;5092210;28;20235;-84
2023/09/20 07:04:25;;;;;;;1.13;1.13;;;;;;;;;;5092363;28;20232;-84
2023/09/20 07:06:52;;;;;;;1.40;1.30;;;;;;;;;;5092552;28;20216;-84
2023/09/20 07:09:21;;;;;;;1.40;1.30;;;;;;;;;;5092661;28;20232;-84
2023/09/20 07:11:48;;;;;;;1.30;1.30;;;;;;;;;;5094326;28;20290;-84
2023/09/20 07:14:20;;;;;;;2.17;1.50;;;;;;;;;;5092516;28;20207;-84
2023/09/20 07:16:47;;;;;;;1.37;1.27;;;;;;;;;;5093623;28;20205;-84
2023/09/20 07:19:17;;;;;;;1.33;1.23;;;;;;;;;;5092776;28;20728;-84
2023/09/20 07:21:44;;;;;;;2.17;1.20;;;;;;;;;;5094054;28;20264;-85
2023/09/20 07:24:12;;;;;;;2.23;1.50;;;;;;;;;;5093820;28;20216;-85
2023/09/20 07:26:43;;;;;;;3.23;1.17;;;;;;;;;;5093561;28;20238;-84
2023/09/20 07:29:11;;;;;;;1.50;1.40;;;;;;;;;;5094040;28;20228;-84
2023/09/20 07:31:38;;;;;;;1.50;1.40;;;;;;;;;;5096681;28;20315;-84
2023/09/20 07:34:06;;;;;;;1.13;1.10;;;;;;;;;;5095828;28;20204;-84
2023/09/20 07:36:35;;;;;;;1.27;1.17;;;;;;;;;;5093509;28;20326;-84
2023/09/20 07:39:05;;;;;;;1.10;1.00;;;;;;;;;;5093225;28;20215;-85
2023/09/20 07:44:11;;;;;;;1.42;1.30;;;;;;;;;;5090233;28;20240;-87
2023/09/20 07:46:38;;;;;;;1.40;1.30;;;;;;;;;;5094265;28;20205;-87
2023/09/20 07:49:09;;;;;;;2.65;1.50;;;;;;;;;;5093878;28;20223;-86
2023/09/20 07:51:37;;;;;;;1.52;1.42;;;;;;;;;;5094092;28;20250;-86
2023/09/20 07:54:06;;;;;;;1.30;1.20;;;;;;;;;;5093950;28;20204;-87
2023/09/20 07:56:34;;;;;;;1.75;1.65;;;;;;;;;;5094376;28;20287;-87
2023/09/20 07:59:01;;;;;;;1.52;1.42;;;;;;;;;;5093914;28;20257;-87
2023/09/20 08:01:30;;;;;;;2.25;1.38;;;;;;;;;;5094137;28;20209;-86
2023/09/20 08:03:58;;;;;;;1.40;1.30;;;;;;;;;;5094065;28;20629;-86
2023/09/20 08:06:27;;;;;;;1.40;1.30;;;;;;;;;;5093893;28;20244;-87
2023/09/20 08:08:55;;;;;;;1.90;1.20;;;;;;;;;;5093472;28;20817;-87
2023/09/20 08:11:22;;;;;;;1.33;1.10;;;;;;;;;;5093757;28;20278;-87
2023/09/20 08:13:50;;;;;;;2.08;1.50;;;;;;;;;;5093987;28;20235;-87
2023/09/20 08:16:18;;;;;;;1.15;1.15;;;;;;;;;;5093698;28;20286;-86
2023/09/20 08:19:16;;;;;;;1.50;1.40;;;;;;;;;;5093893;28;20270;-87
2023/09/20 08:21:43;;;;;;;4.63;1.45;;;;;;;;;;5094289;28;20239;-86
2023/09/20 09:00:00;;;;;;;1.35;1.25;;;;;;;;;;5092561;28;20723;-86
2023/09/20 09:02:28;;;;;;;1.48;1.10;;;;;;;;;;5093132;28;20228;-88
2023/09/20 09:04:55;;;;;;;3.00;1.30;;;;;;;;;;5092540;28;20274;-87
2023/09/20 09:07:24;;;;;;;1.30;1.20;;;;;;;;;;5093090;28;20216;-87
2023/09/20 09:09:52;;;;;;;1.75;1.17;;;;;;;;;;5092218;28;20775;-87
2023/09/20 09:12:19;;;;;;;4.03;0.98;;;;;;;;;;5093144;28;20228;-87
2023/09/20 09:14:48;;;;;;;2.15;1.20;;;;;;;;;;5092284;28;20240;-85
2023/09/20 09:17:16;;;;;;;1.02;0.98;;;;;;;;;;5093057;28;20613;-86
2023/09/20 09:19:43;;;;;;;1.48;1.35;;;;;;;;;;5092049;28;20247;-87
2023/09/20 09:22:12;;;;;;;1.30;1.10;;;;;;;;;;5092846;28;20225;-86
2023/09/20 09:24:44;;;;;;;1.75;1.38;;;;;;;;;;5092117;28;20224;-85
2023/09/20 09:27:11;;;;;;;1.90;1.27;;;;;;;;;;5092926;28;20226;-86
2023/09/20 09:29:39;;;;;;;1.35;1.13;;;;;;;;;;5091771;28;20617;-87
2023/09/20 09:32:06;;;;;;;2.17;1.20;;;;;;;;;;5092390;28;20307;-86
2023/09/20 09:34:34;;;;;;;1.48;1.27;;;;;;;;;;5094494;28;20282;-86
2023/09/20 09:37:01;;;;;;;2.17;1.27;;;;;;;;;;5093013;28;20200;-87
2023/09/20 09:39:29;;;;;;;1.15;1.00;;;;;;;;;;5092290;28;20232;-87
2023/09/20 09:42:00;;;;;;;0.85;0.80;;;;;;;;;;5092324;28;20224;-87
2023/09/20 09:44:27;;;;;;;1.00;1.00;;;;;;;;;;5092006;28;20281;-86
2023/09/20 09:46:55;;;;;;;0.90;0.90;;;;;;;;;;5092133;28;20230;-86
2023/09/20 09:49:22;;;;;;;1.15;1.10;;;;;;;;;;5091850;28;20701;-87
2023/09/20 09:51:51;;;;;;;0.70;0.70;;;;;;;;;;5092241;28;20595;-87
2023/09/20 09:54:19;;;;;;;4.50;1.35;;;;;;;;;;5091905;28;20244;-86
2023/09/20 09:56:46;;;;;;;1.10;1.00;;;;;;;;;;5091903;28;20208;-86
2023/09/20 09:59:14;;;;;;;2.42;0.90;;;;;;;;;;5091703;28;20208;-86
2023/09/20 10:01:42;;;;;;;1.08;0.98;;;;;;;;;;5091834;28;20209;-87
2023/09/20 10:04:10;;;;;;;2.70;0.93;;;;;;;;;;5092104;28;20216;-87
2023/09/20 10:06:41;;;;;;;3.78;1.05;;;;;;;;;;5092578;28;20292;-87
2023/09/20 10:09:11;;;;;;;1.25;1.20;;;;;;;;;;5083810;28;20570;-87
2023/09/20 10:11:41;;;;;;;1.75;1.15;;;;;;;;;;5092409;28;20204;-87
2023/09/20 10:14:09;;;;;;;1.70;1.10;;;;;;;;;;5083460;28;20208;-87
2023/09/20 10:16:38;;;;;;;1.05;0.70;;;;;;;;;;5092305;28;20204;-86
2023/09/20 10:19:10;;;;;;;1.50;1.00;;;;;;;;;;5091950;28;20196;-86
2023/09/20 10:21:40;;;;;;;0.73;0.73;;;;;;;;;;5093923;28;20257;-88
2023/09/20 10:24:09;;;;;;;0.90;0.77;;;;;;;;;;5093117;28;20200;-87
2023/09/20 10:26:39;;;;;;;1.65;0.80;;;;;;;;;;5093799;28;20257;-88
2023/09/20 10:29:31;;;;;;;5.97;0.90;;;;;;;;;;5084456;28;20223;-88
2023/09/20 10:32:08;;;;;;;1.45;1.02;;;;;;;;;;5078158;28;20228;-87
2023/09/20 10:34:37;;;;;;;1.42;0.82;;;;;;;;;;5092792;28;20703;-87
2023/09/20 10:37:08;;;;;;;1.60;0.68;;;;;;;;;;5092655;28;20275;-87
2023/09/20 10:39:35;;;;;;;1.15;0.90;;;;;;;;;;5092679;28;20281;-87
2023/09/20 10:42:08;;;;;;;2.60;0.93;;;;;;;;;;5093963;28;20221;-88
2023/09/20 10:44:38;;;;;;;1.02;0.80;;;;;;;;;;5091879;28;20670;-87
2023/09/20 10:47:09;;;;;;;2.05;0.75;;;;;;;;;;5092059;28;20289;-87
2023/09/20 10:49:52;;;;;;;0.98;0.88;;;;;;;;;;5090651;28;20235;-89
2023/09/20 10:52:38;;;;;;;0.98;0.68;;;;;;;;;;5084833;28;20717;-88
2023/09/20 10:55:29;;;;;;;0.85;0.70;;;;;;;;;;5090866;28;20250;-88
2023/09/20 10:57:57;;;;;;;0.40;0.38;;;;;;;;;;5090260;28;20211;-86
2023/09/20 11:00:30;;;;;;;0.98;0.95;;;;;;;;;;5091059;28;20232;-88
2023/09/20 11:02:59;;;;;;;1.33;0.80;;;;;;;;;;5091580;28;20232;-88
2023/09/20 11:05:28;;;;;;;1.05;0.70;;;;;;;;;;5091018;28;20745;-88
2023/09/20 11:07:55;;;;;;;0.93;0.90;;;;;;;;;;5090870;28;20222;-87
2023/09/20 11:10:23;;;;;;;0.82;0.80;;;;;;;;;;5090897;28;20236;-87
2023/09/20 11:12:55;;;;;;;1.23;0.90;;;;;;;;;;5091109;28;20224;-87
2023/09/20 11:15:22;;;;;;;1.00;0.60;;;;;;;;;;5090824;28;20274;-87
2023/09/20 11:17:49;;;;;;;0.70;0.70;;;;;;;;;;5090839;28;20201;-88
2023/09/20 11:20:17;;;;;;;1.95;0.63;;;;;;;;;;5092683;28;20231;-88
2023/09/20 11:22:44;;;;;;;1.23;0.60;;;;;;;;;;5095080;28;20239;-87
2023/09/20 11:25:12;;;;;;;1.08;0.95;;;;;;;;;;5094844;28;20628;-88
2023/09/20 11:27:39;;;;;;;1.40;0.80;;;;;;;;;;5094953;28;20299;-88
2023/09/20 11:30:07;;;;;;;1.23;0.60;;;;;;;;;;5094312;28;20738;-89
2023/09/20 11:32:36;;;;;;;0.93;0.90;;;;;;;;;;5095013;28;20319;-88
2023/09/20 11:35:03;;;;;;;1.35;0.90;;;;;;;;;;5094293;28;20236;-88
2023/09/20 11:37:32;;;;;;;1.08;0.68;;;;;;;;;;5094564;28;20266;-88
2023/09/20 11:40:01;;;;;;;0.80;0.80;;;;;;;;;;5094244;28;20757;-87
2023/09/20 11:42:29;;;;;;;0.43;0.43;;;;;;;;;;5095023;28;20228;-88
2023/09/20 11:45:01;;;;;;;1.50;0.90;;;;;;;;;;5094180;28;20232;-89
2023/09/20 11:47:30;;;;;;;1.05;0.80;;;;;;;;;;5094407;28;20201;-89
2023/09/20 11:49:58;;;;;;;1.40;1.08;;;;;;;;;;5093833;28;20259;-87
2023/09/20 11:52:25;;;;;;;2.05;1.00;;;;;;;;;;5094685;28;20221;-90
2023/09/20 11:54:55;;;;;;;1.20;1.00;;;;;;;;;;5094070;28;20309;-89
2023/09/20 11:57:22;;;;;;;1.58;1.10;;;;;;;;;;5094345;28;20204;-88
2023/09/20 11:59:50;;;;;;;2.08;1.05;;;;;;;;;;5093882;28;20228;-88
2023/09/20 12:02:17;;;;;;;3.35;1.15;;;;;;;;;;5094333;28;20229;-88
2023/09/20 12:04:45;;;;;;;1.15;0.95;;;;;;;;;;5093862;28;20721;-89
2023/09/20 12:07:12;;;;;;;1.13;0.93;;;;;;;;;;5094503;28;20236;-88
2023/09/20 12:09:39;;;;;;;1.10;0.98;;;;;;;;;;5093451;28;20240;-88
2023/09/20 12:12:10;;;;;;;1.15;1.05;;;;;;;;;;5094098;28;20240;-87
2023/09/20 12:14:38;;;;;;;0.82;0.82;;;;;;;;;;5093850;28;20670;-89
2023/09/20 12:17:06;;;;;;;1.05;0.98;;;;;;;;;;5094058;28;20201;-89
2023/09/20 12:19:33;;;;;;;0.70;0.70;;;;;;;;;;5093638;28;20228;-88
2023/09/20 12:22:00;;;;;;;1.20;1.10;;;;;;;;;;5094242;28;20232;-88
2023/09/20 12:24:28;;;;;;;1.38;0.93;;;;;;;;;;5093548;28;20227;-89
2023/09/20 12:26:56;;;;;;;1.75;0.75;;;;;;;;;;5094117;28;20226;-89
2023/09/20 12:29:24;;;;;;;1.20;1.10;;;;;;;;;;5093241;28;20243;-89
2023/09/20 12:31:52;;;;;;;0.80;0.77;;;;;;;;;;5093416;28;20204;-88
2023/09/20 12:34:21;;;;;;;2.63;1.02;;;;;;;;;;5093386;28;20228;-88
2023/09/20 12:36:48;;;;;;;1.58;1.08;;;;;;;;;;5093817;28;20583;-90
2023/09/20 12:39:16;;;;;;;2.15;1.15;;;;;;;;;;5093884;28;20699;-89
2023/09/20 12:41:43;;;;;;;1.13;1.02;;;;;;;;;;5093625;28;20205;-88
2023/09/20 12:44:11;;;;;;;0.70;0.70;;;;;;;;;;5093428;28;20196;-88
2023/09/20 12:46:40;;;;;;;1.27;1.05;;;;;;;;;;5093496;28;20674;-89
2023/09/20 12:49:07;;;;;;;0.82;0.80;;;;;;;;;;5093070;28;20215;-88
2023/09/20 12:51:34;;;;;;;1.25;0.88;;;;;;;;;;5093421;28;20205;-88
2023/09/20 12:54:04;;;;;;;1.08;0.90;;;;;;;;;;5092756;28;20224;-88
2023/09/20 12:56:31;;;;;;;1.25;1.15;;;;;;;;;;5093740;28;20655;-88
2023/09/20 12:58:58;;;;;;;1.10;0.80;;;;;;;;;;5095974;28;20209;-89
2023/09/20 13:01:25;;;;;;;1.70;0.98;;;;;;;;;;5097558;28;20690;-88
2023/09/20 13:03:54;;;;;;;1.73;0.88;;;;;;;;;;5095698;28;20225;-88
2023/09/20 13:06:23;;;;;;;0.93;0.93;;;;;;;;;;5096401;28;20233;-88
2023/09/20 13:08:50;;;;;;;1.40;1.30;;;;;;;;;;5094719;28;20233;-88
2023/09/20 13:11:18;;;;;;;1.10;1.00;;;;;;;;;;5093343;28;20236;-89
2023/09/20 13:13:45;;;;;;;1.25;1.15;;;;;;;;;;5093598;28;20239;-88
2023/09/20 13:16:14;;;;;;;0.85;0.85;;;;;;;;;;5093128;28;20232;-88
2023/09/20 13:18:42;;;;;;;0.93;0.90;;;;;;;;;;5093151;28;20209;-89
2023/09/20 13:21:10;;;;;;;1.50;1.17;;;;;;;;;;5092647;28;20741;-88
2023/09/20 13:23:38;;;;;;;3.22;1.10;;;;;;;;;;5092757;28;20231;-89
2023/09/20 13:26:05;;;;;;;1.48;1.05;;;;;;;;;;5092152;28;20744;-90
2023/09/20 13:28:32;;;;;;;0.55;0.55;;;;;;;;;;5093817;28;20204;-91
2023/09/20 13:31:01;;;;;;;1.10;1.00;;;;;;;;;;5092362;28;20232;-92
2023/09/20 13:33:30;;;;;;;1.35;1.10;;;;;;;;;;5092973;28;20229;-90
2023/09/20 13:35:57;;;;;;;1.67;1.15;;;;;;;;;;5092023;28;20259;-89
2023/09/20 13:38:25;;;;;;;1.35;1.20;;;;;;;;;;5092590;28;20232;-88
2023/09/20 13:40:55;;;;;;;1.13;1.02;;;;;;;;;;5091835;28;20224;-89
2023/09/20 13:43:22;;;;;;;1.15;0.82;;;;;;;;;;5086708;22;20240;-86
2023/09/20 13:45:49;;;;;;;1.25;1.02;;;;;;;;;;5056444;28;20233;-87
2023/09/20 13:48:17;;;;;;;1.50;1.08;;;;;;;;;;5061639;28;20206;-87
2023/09/20 13:50:44;;;;;;;2.17;1.20;;;;;;;;;;5060257;28;20623;-87
2023/09/20 13:53:11;;;;;;;0.73;0.70;;;;;;;;;;5072093;28;20228;-88
2023/09/20 13:55:39;;;;;;;0.82;0.82;;;;;;;;;;5072375;28;20706;-86
2023/09/20 13:58:07;;;;;;;2.50;1.00;;;;;;;;;;5072419;28;20201;-87
2023/09/20 14:00:34;;;;;;;2.30;0.90;;;;;;;;;;5072618;28;20308;-87
2023/09/20 14:03:02;;;;;;;1.65;1.00;;;;;;;;;;5073548;28;20228;-88
2023/09/20 14:05:29;;;;;;;1.15;0.95;;;;;;;;;;5072875;28;20225;-86
2023/09/20 14:07:56;;;;;;;1.23;1.13;;;;;;;;;;5072875;28;20212;-88
2023/09/20 14:10:24;;;;;;;1.83;1.08;;;;;;;;;;5072879;28;20247;-88
2023/09/20 14:12:53;;;;;;;0.80;0.70;;;;;;;;;;5073001;28;20228;-89
2023/09/20 14:15:22;;;;;;;2.22;1.05;;;;;;;;;;5056863;28;20237;-87
2023/09/20 14:17:50;;;;;;;0.93;0.70;;;;;;;;;;5073311;28;20248;-87
2023/09/20 14:20:18;;;;;;;1.17;1.00;;;;;;;;;;5071936;28;20221;-85
2023/09/20 14:22:45;;;;;;;0.95;0.90;;;;;;;;;;5072357;28;20706;-86
2023/09/20 14:25:12;;;;;;;1.80;0.93;;;;;;;;;;5072043;28;20228;-89
2023/09/20 14:27:40;;;;;;;0.90;0.90;;;;;;;;;;5072697;28;20659;-88
2023/09/20 14:30:11;;;;;;;1.23;1.05;;;;;;;;;;5072611;28;20261;-89
2023/09/20 14:32:39;;;;;;;2.17;0.98;;;;;;;;;;5072144;28;20730;-88
2023/09/20 14:35:07;;;;;;;1.42;0.88;;;;;;;;;;5071729;28;20236;-89
2023/09/20 14:37:34;;;;;;;1.50;1.00;;;;;;;;;;5072323;28;20207;-87
2023/09/20 14:40:03;;;;;;;1.45;0.90;;;;;;;;;;5071831;28;20228;-88
2023/09/20 14:42:30;;;;;;;1.10;1.00;;;;;;;;;;5072069;28;20225;-88
2023/09/20 14:44:57;;;;;;;1.08;1.00;;;;;;;;;;5071678;28;20239;-87
2023/09/20 14:47:27;;;;;;;1.63;0.95;;;;;;;;;;5072032;28;20198;-86
2023/09/20 14:49:54;;;;;;;0.95;0.95;;;;;;;;;;5071370;28;20240;-87
2023/09/20 14:52:22;;;;;;;1.67;1.00;;;;;;;;;;5056102;28;20780;-87
2023/09/20 14:54:51;;;;;;;1.63;1.00;;;;;;;;;;5075123;28;20244;-87
2023/09/20 14:57:19;;;;;;;1.50;1.30;;;;;;;;;;5076556;28;20362;-87
2023/09/20 14:59:47;;;;;;;1.55;1.23;;;;;;;;;;5076088;28;20286;-87
2023/09/20 15:02:14;;;;;;;1.13;1.00;;;;;;;;;;5077268;28;20267;-89
2023/09/20 15:04:43;;;;;;;1.25;1.00;;;;;;;;;;5076489;28;20640;-87
2023/09/20 15:07:11;;;;;;;1.15;0.82;;;;;;;;;;5076351;28;20212;-87
2023/09/20 15:09:38;;;;;;;1.02;0.93;;;;;;;;;;5076611;28;20232;-86
2023/09/20 15:12:06;;;;;;;0.93;0.90;;;;;;;;;;5076927;28;20201;-87
2023/09/20 15:14:32;;;;;;;2.17;1.23;;;;;;;;;;5075517;28;20233;-85
2023/09/20 15:16:59;;;;;;;1.73;1.40;;;;;;;;;;5076519;28;20243;-86
2023/09/20 15:19:27;;;;;;;1.30;1.00;;;;;;;;;;5075933;28;20229;-87
2023/09/20 15:21:56;;;;;;;1.50;1.40;;;;;;;;;;5076146;28;20705;-88
2023/09/20 15:24:24;;;;;;;1.48;0.90;;;;;;;;;;5076057;28;20228;-86
2023/09/20 15:26:52;;;;;;;1.08;1.00;;;;;;;;;;5076107;28;20209;-87